Time;durP1;ratioP1;P1;durP2;ratioP2;P2;SDS_P1;SDS_P2;PMS_P1;PMS_P2;Temp;Humidity;BMP_temperature;BMP_pressure;BME280_temperature;BME280_humidity;BME280_pressure;Samples;Min_cycle;Max_cycle;Signal;HPM_P1;HPM_P2
2021/09/08 00:02:17;;;;;;;21.37;19.57;;;17.30;99.90;;;;;;5054377;28;20471;-61
2021/09/08 00:04:43;;;;;;;20.63;19.07;;;17.30;99.90;;;;;;5054620;28;21011;-61
2021/09/08 00:07:10;;;;;;;20.43;18.83;;;17.20;99.90;;;;;;5054365;28;20455;-60
2021/09/08 00:09:37;;;;;;;22.97;21.17;;;17.20;99.90;;;;;;5054334;28;20448;-62
2021/09/08 00:12:05;;;;;;;20.63;19.23;;;17.10;99.90;;;;;;5053998;28;20834;-62
2021/09/08 00:14:32;;;;;;;20.80;18.90;;;17.10;99.90;;;;;;5054327;28;20443;-60
2021/09/08 00:17:00;;;;;;;28.20;21.03;;;17.10;99.90;;;;;;5054242;28;20452;-62
2021/09/08 00:19:27;;;;;;;19.50;18.30;;;17.00;99.90;;;;;;5054384;28;20452;-61
2021/09/08 00:21:53;;;;;;;19.27;17.80;;;17.00;99.90;;;;;;5054282;28;20464;-59
2021/09/08 00:24:20;;;;;;;20.47;18.93;;;16.90;99.90;;;;;;5053942;28;20855;-62
2021/09/08 00:26:47;;;;;;;21.70;20.00;;;17.00;99.90;;;;;;5054183;28;20443;-62
2021/09/08 00:29:13;;;;;;;21.07;19.27;;;16.90;99.90;;;;;;5054166;28;20452;-61
2021/09/08 00:31:40;;;;;;;20.37;18.87;;;16.90;99.90;;;;;;5053829;28;20521;-61
2021/09/08 00:34:08;;;;;;;19.10;17.53;;;16.90;99.90;;;;;;5053897;28;21074;-62
2021/09/08 00:36:35;;;;;;;20.37;18.63;;;16.90;99.90;;;;;;5054050;28;20445;-60
2021/09/08 00:39:02;;;;;;;19.17;17.67;;;16.90;99.90;;;;;;5054044;28;20451;-61
2021/09/08 00:41:30;;;;;;;21.20;19.27;;;16.80;99.90;;;;;;5053610;28;20467;-62
2021/09/08 00:43:57;;;;;;;19.47;17.97;;;16.80;99.90;;;;;;5053683;28;20491;-65
2021/09/08 00:46:23;;;;;;;19.63;18.03;;;16.80;99.90;;;;;;5053891;28;20443;-64
2021/09/08 00:48:50;;;;;;;19.63;18.23;;;16.70;99.90;;;;;;5053762;28;20447;-61
2021/09/08 00:51:18;;;;;;;18.60;17.10;;;16.70;99.90;;;;;;5053617;28;20472;-63
2021/09/08 00:53:45;;;;;;;18.10;16.73;;;16.70;99.90;;;;;;5053653;28;20937;-61
2021/09/08 00:56:12;;;;;;;19.10;17.57;;;16.70;99.90;;;;;;5053359;28;20453;-64
2021/09/08 00:58:39;;;;;;;21.33;19.43;;;16.60;99.90;;;;;;5053621;28;20953;-63
2021/09/08 01:01:06;;;;;;;18.20;16.77;;;16.60;99.90;;;;;;5053288;28;20460;-64
2021/09/08 01:03:32;;;;;;;18.80;17.30;;;16.60;99.90;;;;;;5052796;28;20476;-62
2021/09/08 01:05:59;;;;;;;18.60;17.10;;;16.60;99.90;;;;;;5053194;28;20820;-62
2021/09/08 01:08:27;;;;;;;19.30;17.73;;;16.60;99.90;;;;;;5053481;28;20452;-60
2021/09/08 01:10:54;;;;;;;18.43;16.63;;;16.60;99.90;;;;;;5053087;28;21053;-66
2021/09/08 01:13:21;;;;;;;18.87;17.37;;;16.60;99.90;;;;;;5053231;28;20441;-62
2021/09/08 01:15:57;;;;;;;18.20;16.67;;;16.60;99.90;;;;;;5053138;28;20825;-60
2021/09/08 01:18:24;;;;;;;18.67;17.17;;;16.60;99.90;;;;;;5053257;28;20439;-60
2021/09/08 01:20:51;;;;;;;20.13;18.50;;;16.60;99.90;;;;;;5053162;28;20832;-61
2021/09/08 01:23:19;;;;;;;18.20;16.80;;;16.60;99.90;;;;;;5052096;28;20471;-62
2021/09/08 01:25:46;;;;;;;17.23;15.90;;;16.60;99.90;;;;;;5053072;28;20448;-62
2021/09/08 01:28:13;;;;;;;18.27;16.97;;;16.50;99.90;;;;;;5053104;28;20456;-65
2021/09/08 01:30:42;;;;;;;21.23;18.73;;;16.50;99.90;;;;;;5052819;28;20965;-63
2021/09/08 01:33:09;;;;;;;18.90;17.37;;;16.50;99.90;;;;;;5052584;28;20809;-61
2021/09/08 01:35:36;;;;;;;19.00;17.40;;;16.50;99.90;;;;;;5052773;28;20448;-62
2021/09/08 01:38:02;;;;;;;18.63;17.13;;;16.50;99.90;;;;;;5052853;28;20814;-60
2021/09/08 01:40:30;;;;;;;17.87;16.57;;;16.50;99.90;;;;;;5052316;28;20476;-61
2021/09/08 01:42:58;;;;;;;18.83;17.40;;;16.50;99.90;;;;;;5052417;28;20459;-62
2021/09/08 01:45:25;;;;;;;19.03;17.40;;;16.50;99.90;;;;;;5052791;28;20813;-61
2021/09/08 01:47:55;;;;;;;17.27;15.90;;;16.50;99.90;;;;;;5052781;28;20440;-63
2021/09/08 01:50:22;;;;;;;20.63;18.97;;;16.50;99.90;;;;;;5052302;28;20472;-62
2021/09/08 01:52:49;;;;;;;19.13;17.73;;;16.50;99.90;;;;;;5052462;28;20452;-61
2021/09/08 01:55:17;;;;;;;18.50;16.80;;;16.40;99.90;;;;;;5052501;28;20436;-62
2021/09/08 01:57:45;;;;;;;19.10;17.50;;;16.40;99.90;;;;;;5052552;28;20866;-61
2021/09/08 02:00:14;;;;;;;17.10;15.80;;;16.40;99.90;;;;;;5052246;28;20447;-62
2021/09/08 02:02:41;;;;;;;16.77;15.57;;;16.50;99.90;;;;;;5052173;28;20440;-60
2021/09/08 02:05:09;;;;;;;18.73;17.17;;;16.50;99.90;;;;;;5052303;28;20475;-61
2021/09/08 02:07:37;;;;;;;17.87;16.37;;;16.50;99.90;;;;;;5052080;28;20448;-61
2021/09/08 02:10:04;;;;;;;17.80;16.37;;;16.40;99.90;;;;;;5052031;28;20471;-62
2021/09/08 02:12:30;;;;;;;18.43;16.90;;;16.40;99.90;;;;;;5052065;28;20448;-60
2021/09/08 02:14:59;;;;;;;18.20;16.90;;;16.40;99.90;;;;;;5051320;28;20448;-63
2021/09/08 02:17:25;;;;;;;17.93;16.63;;;16.30;99.90;;;;;;5051884;28;20463;-64
2021/09/08 02:19:53;;;;;;;19.20;17.23;;;16.30;99.90;;;;;;5052164;28;20451;-60
2021/09/08 02:22:20;;;;;;;19.17;17.63;;;16.30;99.90;;;;;;5051982;28;20817;-60
2021/09/08 02:24:47;;;;;;;18.60;17.30;;;16.30;99.90;;;;;;5051574;28;20476;-61
2021/09/08 02:27:14;;;;;;;18.80;17.20;;;16.30;99.90;;;;;;5051992;28;20880;-59
2021/09/08 02:29:40;;;;;;;18.87;17.10;;;16.30;99.90;;;;;;5051934;28;20444;-61
2021/09/08 02:32:09;;;;;;;20.90;19.20;;;16.20;99.90;;;;;;5051301;28;20475;-58
2021/09/08 02:34:35;;;;;;;19.67;18.17;;;16.20;99.90;;;;;;5051711;28;20441;-61
2021/09/08 02:37:02;;;;;;;19.10;17.60;;;16.20;99.90;;;;;;5051785;28;20448;-62
2021/09/08 02:39:30;;;;;;;19.40;17.90;;;16.10;99.90;;;;;;5051854;28;20938;-58
2021/09/08 02:41:57;;;;;;;21.00;19.07;;;16.10;99.90;;;;;;5051270;28;20467;-60
2021/09/08 02:44:23;;;;;;;19.60;18.00;;;16.10;99.90;;;;;;5051665;28;20480;-61
2021/09/08 02:46:50;;;;;;;19.67;18.20;;;16.00;99.90;;;;;;5051728;28;20440;-60
2021/09/08 02:49:18;;;;;;;19.10;17.70;;;15.90;99.90;;;;;;5051768;28;20448;-61
2021/09/08 02:51:45;;;;;;;21.03;19.20;;;15.90;99.90;;;;;;5051216;28;20464;-62
2021/09/08 02:54:11;;;;;;;20.70;19.00;;;15.90;99.90;;;;;;5051577;28;20432;-61
2021/09/08 02:56:38;;;;;;;20.40;18.90;;;15.80;99.90;;;;;;5051499;28;20842;-61
2021/09/08 02:59:05;;;;;;;17.37;15.90;;;15.80;99.90;;;;;;5051546;28;20454;-66
2021/09/08 03:01:31;;;;;;;20.50;18.40;;;15.70;99.90;;;;;;5051426;28;20483;-62
2021/09/08 03:03:58;;;;;;;20.17;18.30;;;15.70;99.90;;;;;;5050920;28;21307;-59
2021/09/08 03:06:26;;;;;;;21.73;19.70;;;15.60;99.90;;;;;;5051700;28;20448;-60
2021/09/08 03:08:53;;;;;;;20.40;18.67;;;15.60;99.90;;;;;;5051352;28;20444;-60
2021/09/08 03:11:20;;;;;;;21.93;20.13;;;15.60;99.90;;;;;;5051141;28;20467;-63
2021/09/08 03:13:47;;;;;;;17.27;15.87;;;15.50;99.90;;;;;;5051286;28;20440;-61
2021/09/08 03:16:15;;;;;;;18.20;16.63;;;15.50;99.90;;;;;;5051526;28;20444;-62
2021/09/08 03:18:41;;;;;;;16.60;15.20;;;15.50;99.90;;;;;;5051446;28;21132;-60
2021/09/08 03:21:08;;;;;;;18.97;17.27;;;15.40;99.90;;;;;;5051104;28;20468;-62
2021/09/08 03:23:36;;;;;;;17.40;16.00;;;15.40;99.90;;;;;;5051107;28;20444;-59
2021/09/08 03:26:03;;;;;;;18.20;16.73;;;15.40;99.90;;;;;;5052564;28;20447;-60
2021/09/08 03:28:29;;;;;;;17.90;16.40;;;15.40;99.90;;;;;;5055322;28;20448;-58
2021/09/08 03:30:56;;;;;;;19.40;17.50;;;15.30;99.90;;;;;;5055078;28;20463;-61
2021/09/08 03:33:23;;;;;;;20.57;18.67;;;15.30;99.90;;;;;;5054909;28;20448;-61
2021/09/08 03:35:49;;;;;;;20.70;19.17;;;15.30;99.90;;;;;;5055192;28;20784;-59
2021/09/08 03:38:16;;;;;;;21.63;19.53;;;15.30;99.90;;;;;;5055180;28;20578;-59
2021/09/08 03:40:44;;;;;;;19.80;17.90;;;15.30;99.90;;;;;;5054695;28;20467;-61
2021/09/08 03:43:11;;;;;;;17.20;15.60;;;15.20;99.90;;;;;;5054877;28;20831;-62
2021/09/08 03:45:38;;;;;;;19.33;17.57;;;15.20;99.90;;;;;;5054945;28;20484;-61
2021/09/08 03:48:05;;;;;;;19.30;17.40;;;15.20;99.90;;;;;;5054992;28;20443;-62
2021/09/08 03:50:32;;;;;;;18.70;17.00;;;15.10;99.90;;;;;;5054775;28;20991;-58
2021/09/08 03:52:59;;;;;;;18.83;17.13;;;15.10;99.90;;;;;;5054757;28;20440;-60
2021/09/08 03:55:25;;;;;;;18.80;16.63;;;15.10;99.90;;;;;;5054879;28;20447;-63
2021/09/08 03:57:53;;;;;;;17.87;16.27;;;15.10;99.90;;;;;;5054919;28;20448;-61
2021/09/08 04:00:20;;;;;;;19.13;17.23;;;15.10;99.90;;;;;;5054425;28;20543;-61
2021/09/08 04:02:47;;;;;;;19.53;17.57;;;15.10;99.90;;;;;;5054574;28;20447;-61
2021/09/08 04:05:14;;;;;;;17.67;15.97;;;15.10;99.90;;;;;;5054567;28;21009;-62
2021/09/08 04:07:40;;;;;;;18.20;15.20;;;15.10;99.90;;;;;;5054497;28;20941;-61
2021/09/08 04:10:08;;;;;;;17.90;16.00;;;15.10;99.90;;;;;;5053618;28;20456;-61
2021/09/08 04:12:35;;;;;;;16.60;14.87;;;15.00;99.90;;;;;;5054639;28;20452;-65
2021/09/08 04:15:03;;;;;;;20.93;16.67;;;15.00;99.90;;;;;;5054174;28;20447;-65
2021/09/08 04:17:30;;;;;;;17.30;15.50;;;15.00;99.90;;;;;;5054404;28;20475;-62
2021/09/08 04:19:57;;;;;;;18.23;16.33;;;15.00;99.90;;;;;;5053902;28;20448;-64
2021/09/08 04:22:24;;;;;;;18.37;16.57;;;14.90;99.90;;;;;;5054049;28;20440;-64
2021/09/08 04:24:50;;;;;;;17.83;16.13;;;14.90;99.90;;;;;;5054226;28;20476;-65
2021/09/08 04:27:17;;;;;;;19.00;17.10;;;14.90;99.90;;;;;;5055446;28;20932;-66
2021/09/08 04:29:43;;;;;;;17.47;15.83;;;14.90;99.90;;;;;;5054223;28;20452;-64
2021/09/08 04:32:12;;;;;;;16.40;14.93;;;14.90;99.90;;;;;;5056708;28;20468;-66
2021/09/08 04:34:38;;;;;;;18.03;15.30;;;14.90;99.90;;;;;;5057911;28;20491;-65
2021/09/08 04:37:05;;;;;;;18.87;15.90;;;14.90;99.90;;;;;;5055071;28;20950;-64
2021/09/08 04:39:32;;;;;;;26.90;15.87;;;14.90;99.90;;;;;;5057177;28;20934;-66
2021/09/08 04:41:58;;;;;;;14.67;13.13;;;14.90;99.90;;;;;;5058731;28;20483;-66
2021/09/08 04:44:25;;;;;;;19.10;15.37;;;14.90;99.90;;;;;;5054909;28;21117;-66
2021/09/08 04:46:52;;;;;;;16.93;14.57;;;14.90;99.90;;;;;;5055584;28;20942;-66
2021/09/08 04:49:20;;;;;;;15.40;13.90;;;14.80;99.90;;;;;;5055880;28;20440;-66
2021/09/08 04:51:47;;;;;;;15.30;13.80;;;14.90;99.90;;;;;;5054883;28;20483;-67
2021/09/08 04:54:14;;;;;;;17.67;15.60;;;14.80;99.90;;;;;;5054590;28;20451;-66
2021/09/08 04:56:41;;;;;;;19.67;16.10;;;14.80;99.90;;;;;;5054765;28;20447;-66
2021/09/08 04:59:07;;;;;;;14.00;12.60;;;14.80;99.90;;;;;;5054090;28;20448;-65
2021/09/08 05:01:34;;;;;;;15.50;13.10;;;14.90;99.90;;;;;;5053415;28;20472;-64
2021/09/08 05:04:01;;;;;;;14.40;12.47;;;14.90;99.90;;;;;;5054258;28;20527;-67
2021/09/08 05:06:29;;;;;;;14.27;12.87;;;14.90;99.90;;;;;;5053322;28;20449;-67
2021/09/08 05:08:56;;;;;;;14.50;12.90;;;14.90;99.90;;;;;;5053295;28;20448;-67
2021/09/08 05:11:24;;;;;;;16.63;13.20;;;15.00;99.90;;;;;;5053027;28;20476;-67
2021/09/08 05:13:51;;;;;;;15.37;13.20;;;15.00;99.90;;;;;;5053208;28;20444;-67
2021/09/08 05:16:19;;;;;;;14.77;13.27;;;15.00;99.90;;;;;;5052914;28;20574;-66
2021/09/08 05:18:46;;;;;;;15.93;13.50;;;15.10;99.90;;;;;;5052884;28;20444;-66
2021/09/08 05:21:12;;;;;;;16.63;14.27;;;15.20;99.90;;;;;;5052997;28;20868;-67
2021/09/08 05:23:40;;;;;;;20.20;15.43;;;15.20;99.90;;;;;;5053150;28;20448;-64
2021/09/08 05:26:07;;;;;;;18.93;13.80;;;15.20;99.90;;;;;;5054425;28;20478;-64
2021/09/08 05:28:34;;;;;;;16.17;14.60;;;15.30;99.90;;;;;;5052816;28;20448;-65
2021/09/08 05:31:01;;;;;;;14.13;12.73;;;15.40;99.90;;;;;;5052544;28;20803;-66
2021/09/08 05:33:27;;;;;;;13.97;12.67;;;15.40;99.90;;;;;;5053050;28;20479;-64
2021/09/08 05:35:54;;;;;;;18.00;14.30;;;15.50;99.90;;;;;;5052582;28;21019;-63
2021/09/08 05:38:21;;;;;;;16.97;15.17;;;15.50;99.90;;;;;;5052851;28;20451;-61
2021/09/08 05:40:50;;;;;;;16.20;14.63;;;15.60;99.90;;;;;;5052464;28;20502;-64
2021/09/08 05:43:17;;;;;;;16.53;14.43;;;15.70;99.90;;;;;;5052372;28;20926;-67
2021/09/08 05:45:44;;;;;;;19.67;15.93;;;15.80;99.90;;;;;;5052635;28;20819;-66
2021/09/08 05:48:11;;;;;;;16.00;14.60;;;15.90;99.90;;;;;;5052487;28;20489;-65
2021/09/08 05:50:37;;;;;;;18.00;14.40;;;15.90;99.90;;;;;;5052338;28;20496;-61
2021/09/08 05:53:06;;;;;;;16.73;14.80;;;16.10;99.90;;;;;;5052086;28;20482;-65
2021/09/08 05:55:33;;;;;;;16.43;14.80;;;16.20;99.90;;;;;;5052560;28;20481;-64
2021/09/08 05:58:01;;;;;;;15.50;13.93;;;16.30;99.90;;;;;;5052163;28;20451;-68
2021/09/08 06:00:28;;;;;;;19.37;14.47;;;16.50;99.90;;;;;;5052344;28;20463;-64
2021/09/08 06:02:55;;;;;;;15.60;14.10;;;16.60;99.90;;;;;;5052065;28;20454;-65
2021/09/08 06:05:22;;;;;;;16.27;14.70;;;16.80;99.90;;;;;;5052424;28;20447;-65
2021/09/08 06:07:48;;;;;;;17.17;15.57;;;16.90;99.90;;;;;;5052077;28;20922;-63
2021/09/08 06:10:20;;;;;;;16.83;15.23;;;17.10;99.90;;;;;;5051426;28;20899;-64
2021/09/08 06:12:47;;;;;;;17.23;15.93;;;17.20;99.90;;;;;;5051918;28;20456;-63
2021/09/08 06:15:16;;;;;;;18.10;16.70;;;17.40;99.90;;;;;;5052054;28;20973;-65
2021/09/08 06:17:42;;;;;;;18.33;16.67;;;17.40;99.90;;;;;;5052113;28;20444;-66
2021/09/08 06:20:10;;;;;;;18.80;16.93;;;17.50;99.90;;;;;;5051932;28;20656;-64
2021/09/08 06:22:37;;;;;;;18.30;16.60;;;17.70;99.90;;;;;;5051781;28;20447;-63
2021/09/08 06:25:04;;;;;;;18.60;17.20;;;17.80;99.90;;;;;;5051970;28;20448;-65
2021/09/08 06:27:31;;;;;;;18.90;17.43;;;17.90;99.90;;;;;;5051946;28;20440;-65
2021/09/08 06:29:57;;;;;;;20.10;18.40;;;18.00;99.90;;;;;;5051839;28;20447;-65
2021/09/08 06:32:26;;;;;;;19.87;18.30;;;18.10;99.90;;;;;;5051661;28;20943;-65
2021/09/08 06:34:53;;;;;;;19.97;18.43;;;18.20;99.90;;;;;;5051806;28;20475;-66
2021/09/08 06:37:20;;;;;;;20.63;19.03;;;18.30;99.90;;;;;;5051782;28;20471;-65
2021/09/08 06:39:46;;;;;;;20.70;19.23;;;18.30;99.90;;;;;;5051747;28;20507;-66
2021/09/08 06:42:13;;;;;;;22.67;20.87;;;18.50;99.90;;;;;;5051394;28;20464;-65
2021/09/08 06:44:40;;;;;;;21.23;19.60;;;18.50;99.90;;;;;;5051580;28;20523;-67
2021/09/08 06:47:07;;;;;;;22.97;21.17;;;18.60;99.90;;;;;;5051614;28;20834;-67
2021/09/08 06:49:35;;;;;;;22.50;20.80;;;18.70;99.90;;;;;;5051600;28;20531;-64
2021/09/08 06:52:02;;;;;;;21.47;20.07;;;18.80;99.90;;;;;;5051258;28;20471;-65
2021/09/08 06:54:29;;;;;;;21.63;20.13;;;18.80;99.90;;;;;;5051719;28;20502;-65
2021/09/08 06:56:56;;;;;;;22.07;20.47;;;18.90;99.90;;;;;;5051543;28;20476;-66
2021/09/08 06:59:22;;;;;;;21.60;20.00;;;18.90;99.90;;;;;;5051578;28;20447;-66
2021/09/08 07:01:49;;;;;;;22.97;21.27;;;19.00;99.90;;;;;;5050686;28;21132;-65
2021/09/08 07:04:16;;;;;;;21.60;20.20;;;19.10;99.90;;;;;;5051505;28;20476;-65
2021/09/08 07:06:44;;;;;;;22.63;20.93;;;19.20;99.90;;;;;;5051395;28;20440;-65
2021/09/08 07:09:10;;;;;;;22.33;20.73;;;19.30;99.90;;;;;;5051450;28;20467;-66
2021/09/08 07:11:37;;;;;;;22.70;21.10;;;19.40;99.90;;;;;;5051050;28;20483;-67
2021/09/08 07:14:04;;;;;;;20.70;19.33;;;19.50;99.90;;;;;;5051349;28;20439;-65
2021/09/08 07:16:31;;;;;;;21.53;20.13;;;19.60;99.90;;;;;;5051260;28;20480;-65
2021/09/08 07:18:58;;;;;;;23.23;21.63;;;19.70;99.90;;;;;;5051457;28;20511;-65
2021/09/08 07:21:24;;;;;;;23.60;21.93;;;19.70;99.90;;;;;;5051022;28;20479;-65
2021/09/08 07:23:52;;;;;;;22.70;21.00;;;19.80;99.90;;;;;;5051304;28;20447;-66
2021/09/08 07:26:19;;;;;;;23.10;21.50;;;20.00;99.90;;;;;;5051197;28;20444;-65
2021/09/08 07:28:46;;;;;;;23.73;22.07;;;20.10;99.90;;;;;;5051349;28;20443;-67
2021/09/08 07:31:12;;;;;;;23.37;21.87;;;20.20;99.90;;;;;;5051078;28;20524;-65
2021/09/08 07:33:39;;;;;;;24.37;22.07;;;20.20;99.90;;;;;;5051177;28;20452;-64
2021/09/08 07:36:06;;;;;;;22.83;21.20;;;20.30;99.90;;;;;;5051119;28;20476;-64
2021/09/08 07:38:33;;;;;;;22.77;21.27;;;20.30;99.90;;;;;;5051175;28;20452;-65
2021/09/08 07:41:01;;;;;;;22.97;21.37;;;20.30;99.90;;;;;;5050782;28;20463;-65
2021/09/08 07:43:28;;;;;;;24.17;22.57;;;20.40;99.90;;;;;;5050844;28;20505;-65
2021/09/08 07:45:54;;;;;;;24.50;22.80;;;20.50;99.90;;;;;;5051085;28;20922;-66
2021/09/08 07:48:23;;;;;;;24.50;22.70;;;20.60;99.90;;;;;;5050917;28;20452;-65
2021/09/08 07:50:50;;;;;;;23.47;21.97;;;20.70;99.90;;;;;;5050809;28;20954;-65
2021/09/08 07:53:16;;;;;;;23.53;21.80;;;20.70;99.90;;;;;;5050839;28;20454;-66
2021/09/08 07:55:43;;;;;;;24.00;22.50;;;20.80;99.90;;;;;;5050844;28;20475;-65
2021/09/08 07:58:11;;;;;;;23.80;22.00;;;20.90;99.90;;;;;;5050937;28;20459;-67
2021/09/08 08:00:38;;;;;;;23.10;21.37;;;21.00;99.90;;;;;;5050945;28;20475;-65
2021/09/08 08:03:05;;;;;;;24.93;23.10;;;21.10;99.90;;;;;;5050592;28;20455;-67
2021/09/08 08:05:33;;;;;;;25.10;23.30;;;21.20;99.90;;;;;;5050892;28;20960;-65
2021/09/08 08:08:00;;;;;;;23.70;22.10;;;21.30;99.90;;;;;;5050957;28;20459;-65
2021/09/08 08:10:27;;;;;;;22.73;21.33;;;21.30;99.90;;;;;;5050702;28;20842;-65
2021/09/08 08:12:53;;;;;;;23.70;22.10;;;21.40;99.90;;;;;;5051618;28;20444;-63
2021/09/08 08:15:22;;;;;;;26.30;23.70;;;21.50;99.90;;;;;;5054296;28;20483;-65
2021/09/08 08:17:49;;;;;;;24.43;22.63;;;21.60;99.90;;;;;;5054525;28;20451;-65
2021/09/08 08:20:16;;;;;;;23.70;22.00;;;21.70;99.90;;;;;;5054234;28;20452;-67
2021/09/08 08:22:43;;;;;;;23.53;22.13;;;21.80;99.90;;;;;;5053987;28;20440;-65
2021/09/08 08:25:12;;;;;;;23.47;21.87;;;22.00;99.90;;;;;;5054249;28;20455;-67
2021/09/08 08:27:39;;;;;;;25.90;24.07;;;22.10;99.90;;;;;;5054516;28;20457;-66
2021/09/08 08:30:08;;;;;;;25.43;23.73;;;22.10;99.90;;;;;;5054066;28;20925;-66
2021/09/08 08:32:36;;;;;;;23.20;21.80;;;22.10;99.90;;;;;;5053977;28;20440;-66
2021/09/08 08:35:03;;;;;;;24.77;23.10;;;22.20;99.90;;;;;;5053993;28;20445;-65
2021/09/08 08:37:30;;;;;;;24.03;22.60;;;22.40;99.90;;;;;;5053681;28;20482;-63
2021/09/08 08:39:57;;;;;;;23.20;21.80;;;22.40;99.90;;;;;;5053909;28;20448;-67
2021/09/08 08:42:27;;;;;;;23.77;22.23;;;22.50;99.90;;;;;;5053483;28;20436;-64
2021/09/08 08:44:54;;;;;;;24.00;22.60;;;22.60;99.90;;;;;;5053931;28;20454;-66
2021/09/08 08:47:22;;;;;;;24.37;22.83;;;22.70;99.90;;;;;;5053650;28;20812;-63
2021/09/08 08:49:51;;;;;;;23.70;22.30;;;22.80;99.90;;;;;;5053765;28;20808;-66
2021/09/08 08:52:18;;;;;;;25.17;23.30;;;22.90;99.90;;;;;;5053435;28;20989;-66
2021/09/08 08:54:45;;;;;;;27.23;25.00;;;23.00;99.90;;;;;;5053690;28;20440;-65
2021/09/08 08:57:13;;;;;;;24.80;23.10;;;23.10;99.90;;;;;;5053587;28;20483;-65
2021/09/08 08:59:43;;;;;;;23.23;21.80;;;23.10;99.90;;;;;;5053698;28;20863;-65
2021/09/08 09:02:20;;;;;;;23.40;22.00;;;23.20;99.90;;;;;;5053161;28;20460;-65
2021/09/08 09:04:48;;;;;;;24.03;22.53;;;23.30;99.90;;;;;;5053735;28;20477;-66
2021/09/08 09:07:23;;;;;;;24.00;22.30;;;23.40;99.90;;;;;;5053529;28;20941;-66
2021/09/08 09:09:52;;;;;;;23.17;21.57;;;23.60;99.90;;;;;;5053432;28;20627;-67
2021/09/08 09:12:19;;;;;;;24.57;23.03;;;23.70;99.90;;;;;;5053028;28;21182;-67
2021/09/08 09:14:49;;;;;;;23.33;22.10;;;23.80;99.90;;;;;;5053280;28;20848;-65
2021/09/08 09:17:18;;;;;;;24.83;22.90;;;23.90;99.90;;;;;;5053393;28;20476;-64
2021/09/08 09:19:48;;;;;;;25.83;24.17;;;23.90;99.90;;;;;;5053104;28;20448;-65
2021/09/08 09:22:18;;;;;;;22.47;21.27;;;24.10;99.90;;;;;;5053086;28;20834;-65
2021/09/08 09:24:51;;;;;;;23.80;22.50;;;24.10;99.90;;;;;;5052806;28;20471;-67
2021/09/08 09:27:18;;;;;;;24.27;22.83;;;24.20;99.90;;;;;;5053227;28;20441;-66
2021/09/08 09:29:45;;;;;;;25.63;24.13;;;24.30;99.90;;;;;;5052929;28;20444;-65
2021/09/08 09:32:13;;;;;;;23.30;21.90;;;24.40;99.90;;;;;;5052658;28;20468;-64
2021/09/08 09:34:41;;;;;;;25.77;24.27;;;24.40;99.90;;;;;;5052948;28;20451;-64
2021/09/08 09:37:09;;;;;;;23.53;22.03;;;24.50;99.90;;;;;;5052932;28;20487;-65
2021/09/08 09:39:38;;;;;;;24.10;22.50;;;24.60;99.90;;;;;;5052946;28;20455;-65
2021/09/08 09:42:10;;;;;;;24.53;22.73;;;24.70;99.90;;;;;;5052558;28;20476;-66
2021/09/08 09:44:37;;;;;;;27.20;25.40;;;24.70;99.90;;;;;;5052794;28;20456;-65
2021/09/08 09:47:04;;;;;;;24.97;23.40;;;24.80;99.90;;;;;;5052701;28;20441;-63
2021/09/08 09:49:32;;;;;;;24.37;22.83;;;25.00;99.90;;;;;;5052732;28;20475;-64
2021/09/08 09:52:00;;;;;;;23.53;22.20;;;25.10;99.90;;;;;;5052356;28;20539;-67
2021/09/08 09:54:26;;;;;;;24.50;23.10;;;25.30;99.90;;;;;;5052650;28;20823;-66
2021/09/08 09:56:54;;;;;;;25.67;23.90;;;25.30;99.90;;;;;;5052417;28;20491;-66
2021/09/08 09:59:23;;;;;;;24.50;23.00;;;25.40;99.90;;;;;;5052531;28;20449;-65
2021/09/08 10:01:50;;;;;;;24.50;22.97;;;25.50;99.90;;;;;;5052068;28;20988;-64
2021/09/08 10:04:17;;;;;;;25.30;24.00;;;25.60;99.80;;;;;;5052480;28;20798;-65
2021/09/08 10:06:44;;;;;;;25.63;24.17;;;25.70;99.30;;;;;;5052316;28;20471;-65
2021/09/08 10:09:14;;;;;;;24.80;23.50;;;25.80;99.10;;;;;;5052495;28;20914;-65
2021/09/08 10:11:45;;;;;;;26.87;24.93;;;25.80;99.30;;;;;;5102396;22;20479;-55
2021/09/08 10:14:14;;;;;;;25.37;23.80;;;25.90;99.00;;;;;;5079170;28;20447;-55
2021/09/08 10:16:46;;;;;;;24.43;22.70;;;26.00;99.40;;;;;;5071890;28;21101;-57
2021/09/08 10:19:17;;;;;;;24.20;22.80;;;26.10;99.50;;;;;;5072332;28;20980;-58
2021/09/08 10:21:46;;;;;;;25.00;23.50;;;26.30;97.00;;;;;;5071721;28;20463;-59
2021/09/08 10:24:12;;;;;;;24.53;23.13;;;26.40;97.10;;;;;;5072095;28;20951;-59
2021/09/08 10:26:39;;;;;;;25.10;23.70;;;26.60;95.80;;;;;;5071953;28;20917;-59
2021/09/08 10:29:07;;;;;;;24.40;23.20;;;26.60;94.90;;;;;;5071735;28;20447;-61
2021/09/08 10:31:36;;;;;;;25.07;23.43;;;26.80;95.80;;;;;;5071805;28;20467;-61
2021/09/08 10:34:05;;;;;;;26.13;24.63;;;26.80;94.10;;;;;;5071822;28;20436;-57
2021/09/08 10:36:33;;;;;;;25.93;24.23;;;26.90;93.40;;;;;;5070976;28;20510;-57
2021/09/08 10:39:08;;;;;;;25.70;24.40;;;26.90;92.10;;;;;;5071837;28;20451;-57
2021/09/08 10:41:43;;;;;;;27.77;26.03;;;26.90;92.00;;;;;;5071552;28;20466;-58
2021/09/08 10:44:11;;;;;;;25.30;23.90;;;26.90;92.60;;;;;;5071615;28;20447;-61
2021/09/08 10:46:56;;;;;;;26.57;24.80;;;27.20;92.00;;;;;;5071727;28;20446;-60
2021/09/08 10:49:52;;;;;;;26.63;25.13;;;27.40;90.70;;;;;;5071551;28;20443;-62
2021/09/08 10:52:41;;;;;;;25.93;24.53;;;27.70;87.20;;;;;;5071510;28;20459;-58
2021/09/08 10:55:16;;;;;;;25.77;24.47;;;28.00;84.00;;;;;;5071474;28;20859;-55
2021/09/08 10:57:53;;;;;;;26.23;24.83;;;28.20;81.10;;;;;;5071418;28;20479;-58
2021/09/08 11:00:22;;;;;;;26.43;25.03;;;28.50;79.50;;;;;;5071551;28;21022;-60
2021/09/08 11:02:49;;;;;;;29.37;27.57;;;28.80;78.40;;;;;;5071336;28;20446;-56
2021/09/08 11:05:17;;;;;;;26.50;25.10;;;29.10;72.00;;;;;;5071348;28;20439;-59
2021/09/08 11:07:46;;;;;;;27.73;26.23;;;29.40;68.90;;;;;;5071338;28;20965;-55
2021/09/08 11:10:13;;;;;;;27.30;25.90;;;29.90;67.60;;;;;;5071389;28;20504;-56
2021/09/08 11:12:47;;;;;;;27.33;25.73;;;30.60;62.70;;;;;;5070892;28;20479;-56
2021/09/08 11:15:15;;;;;;;27.53;26.20;;;31.00;59.80;;;;;;5071352;28;20525;-55
2021/09/08 11:17:42;;;;;;;29.23;27.67;;;31.70;57.90;;;;;;5071311;28;20479;-55
2021/09/08 11:20:10;;;;;;;28.40;26.97;;;32.10;55.90;;;;;;5071340;28;20446;-54
2021/09/08 11:22:38;;;;;;;27.40;26.00;;;32.70;54.40;;;;;;5071046;28;20458;-55
2021/09/08 11:25:07;;;;;;;29.40;27.90;;;33.30;51.80;;;;;;5071090;28;20450;-54
2021/09/08 11:27:34;;;;;;;29.48;28.00;;;33.60;49.60;;;;;;5071366;28;20457;-54
2021/09/08 11:30:03;;;;;;;28.38;26.85;;;34.70;48.20;;;;;;5071287;28;20211;-57
2021/09/08 11:32:49;;;;;;;28.92;27.63;;;35.40;46.20;;;;;;5070800;28;20236;-59
2021/09/08 11:35:15;;;;;;;27.88;26.48;;;37.20;43.60;;;;;;5071196;28;20208;-58
2021/09/08 11:37:45;;;;;;;28.48;27.05;;;38.70;40.60;;;;;;5070969;28;20235;-58
2021/09/08 11:40:12;;;;;;;28.65;26.98;;;39.20;38.70;;;;;;5070991;28;20574;-59
2021/09/08 11:42:42;;;;;;;28.15;26.83;;;40.60;36.00;;;;;;5070692;28;20231;-59
2021/09/08 11:45:09;;;;;;;30.05;28.60;;;41.60;33.50;;;;;;5071060;28;20235;-59
2021/09/08 11:47:36;;;;;;;29.83;28.52;;;42.30;32.00;;;;;;5073101;28;20597;-56
2021/09/08 11:50:03;;;;;;;27.27;26.00;;;43.70;30.80;;;;;;5074720;28;20204;-57
2021/09/08 11:52:30;;;;;;;28.77;27.13;;;44.90;28.60;;;;;;5074388;28;20228;-61
2021/09/08 11:54:58;;;;;;;27.63;26.42;;;45.10;27.60;;;;;;5074734;28;20212;-57
2021/09/08 11:57:26;;;;;;;27.60;26.30;;;46.20;27.10;;;;;;5074565;28;20235;-54
2021/09/08 11:59:53;;;;;;;27.73;26.48;;;46.70;25.90;;;;;;5074203;28;20212;-56
2021/09/08 12:02:20;;;;;;;28.73;27.45;;;47.30;25.60;;;;;;5074186;28;20260;-60
2021/09/08 12:04:47;;;;;;;27.92;26.73;;;48.20;24.90;;;;;;5074470;28;20623;-59
2021/09/08 12:07:13;;;;;;;28.63;27.40;;;47.90;24.70;;;;;;5074492;28;20200;-56
2021/09/08 12:09:43;;;;;;;30.05;28.15;;;49.00;24.50;;;;;;5074352;28;20685;-57
2021/09/08 12:12:12;;;;;;;27.38;26.27;;;50.00;23.60;;;;;;5073991;28;20593;-59
2021/09/08 12:14:42;;;;;;;28.13;26.55;;;50.30;22.90;;;;;;5074381;28;20571;-55
2021/09/08 12:17:32;;;;;;;25.55;24.52;;;51.10;22.60;;;;;;5074210;28;20763;-59
2021/09/08 12:20:02;;;;;;;25.77;24.77;;;52.20;21.80;;;;;;5059106;28;20581;-57
2021/09/08 12:22:33;;;;;;;27.05;25.77;;;51.80;21.60;;;;;;5073791;28;20697;-60
2021/09/08 12:25:02;;;;;;;27.88;26.77;;;52.20;21.30;;;;;;5074055;28;20717;-57
2021/09/08 12:27:33;;;;;;;28.08;26.90;;;52.10;21.20;;;;;;5074045;28;20215;-59
2021/09/08 12:30:02;;;;;;;26.58;25.48;;;52.60;21.30;;;;;;5074362;28;20704;-57
2021/09/08 12:32:51;;;;;;;27.58;26.45;;;52.20;20.90;;;;;;5073646;28;20213;-59